Time,TemperatureF,DewpointF,PressureIn,WindDirection,WindDirectionDegrees,WindSpeedMPH,WindSpeedGustMPH,Humidity,HourlyPrecipIn,Conditions,Clouds,dailyrainin,SoftwareType,DateUTC
2013-07-03 00:01:00,57.3,52.0,30.16,West,266,0.0,2.0,83,0.00,,,0.00,weatherlink.com 1.10,2013-07-03 04:01:00,
2013-07-03 00:16:00,56.5,51.0,30.15,West,266,0.0,1.0,83,0.00,,,0.00,weatherlink.com 1.10,2013-07-03 04:16:00,
2013-07-03 00:31:00,55.8,51.0,30.15,West,266,0.0,1.0,84,0.00,,,0.00,weatherlink.com 1.10,2013-07-03 04:31:00,
2013-07-03 00:46:00,55.3,51.0,30.14,West,266,0.0,0.0,84,0.00,,,0.00,weatherlink.com 1.10,2013-07-03 04:46:00,
2013-07-03 01:01:00,55.1,51.0,30.14,West,266,0.0,1.0,85,0.00,,,0.00,weatherlink.com 1.10,2013-07-03 05:01:00,
2013-07-03 01:16:00,55.2,51.0,30.14,West,266,0.0,1.0,85,0.00,,,0.00,weatherlink.com 1.10,2013-07-03 05:16:00,
2013-07-03 01:31:00,55.6,51.0,30.14,West,266,0.0,1.0,84,0.00,,,0.00,weatherlink.com 1.10,2013-07-03 05:31:00,
2013-07-03 01:46:00,56.0,51.0,30.15,West,266,0.0,1.0,84,0.00,,,0.00,weatherlink.com 1.10,2013-07-03 05:46:00,
2013-07-03 02:01:00,56.3,52.0,30.14,West,266,0.0,0.0,84,0.00,,,0.00,weatherlink.com 1.10,2013-07-03 06:01:00,
2013-07-03 02:16:00,56.3,51.0,30.14,West,266,0.0,0.0,83,0.00,,,0.00,weatherlink.com 1.10,2013-07-03 06:16:00,
2013-07-03 02:31:00,56.4,51.0,30.15,West,266,0.0,0.0,82,0.00,,,0.00,weatherlink.com 1.10,2013-07-03 06:31:00,
2013-07-03 02:46:00,56.6,51.0,30.14,West,266,0.0,1.0,80,0.00,,,0.00,weatherlink.com 1.10,2013-07-03 06:46:00,
2013-07-03 03:01:00,56.8,50.0,30.15,NNE,15,0.0,3.0,79,0.00,,,0.00,weatherlink.com 1.10,2013-07-03 07:01:00,
2013-07-03 03:31:00,56.3,51.0,30.15,NNE,15,0.0,0.0,83,0.00,,,0.00,weatherlink.com 1.10,2013-07-03 07:31:00,
2013-07-03 03:46:00,56.1,51.0,30.15,NNE,15,0.0,0.0,84,0.00,,,0.00,weatherlink.com 1.10,2013-07-03 07:46:00,
2013-07-03 04:01:00,56.4,52.0,30.15,NNE,15,0.0,0.0,84,0.00,,,0.00,weatherlink.com 1.10,2013-07-03 08:01:00,
2013-07-03 04:16:00,56.4,51.0,30.14,NNE,15,0.0,0.0,83,0.00,,,0.00,weatherlink.com 1.10,2013-07-03 08:16:00,
2013-07-03 04:31:00,56.0,52.0,30.14,NNE,15,0.0,0.0,85,0.00,,,0.00,weatherlink.com 1.10,2013-07-03 08:31:00,
2013-07-03 05:01:00,55.2,51.0,30.14,NNE,15,0.0,0.0,85,0.00,,,0.00,weatherlink.com 1.10,2013-07-03 09:01:00,
2013-07-03 05:16:00,54.8,50.0,30.14,NNE,15,0.0,0.0,85,0.00,,,0.00,weatherlink.com 1.10,2013-07-03 09:16:00,
2013-07-03 05:31:00,54.4,50.0,30.14,NNE,15,0.0,0.0,85,0.00,,,0.00,weatherlink.com 1.10,2013-07-03 09:31:00,
2013-07-03 05:46:00,53.8,49.0,30.14,NNE,15,0.0,0.0,85,0.00,,,0.00,weatherlink.com 1.10,2013-07-03 09:46:00,
2013-07-03 06:01:00,53.5,50.0,30.15,NNE,15,0.0,0.0,86,0.00,,,0.00,weatherlink.com 1.10,2013-07-03 10:01:00,
2013-07-03 06:16:00,53.5,50.0,30.15,NNE,15,0.0,0.0,86,0.00,,,0.00,weatherlink.com 1.10,2013-07-03 10:16:00,
2013-07-03 07:01:00,55.2,51.0,30.16,NNE,15,0.0,0.0,86,0.00,,,0.00,weatherlink.com 1.10,2013-07-03 11:01:00,
2013-07-03 07:16:00,55.4,51.0,30.16,NNE,14,0.0,0.0,86,0.00,,,0.00,weatherlink.com 1.10,2013-07-03 11:16:00,
2013-07-03 07:31:00,56.4,52.0,30.16,NNE,14,0.0,0.0,86,0.00,,,0.00,weatherlink.com 1.10,2013-07-03 11:31:00,
2013-07-03 07:46:00,58.0,54.0,30.16,North,5,0.0,2.0,85,0.00,,,0.00,weatherlink.com 1.10,2013-07-03 11:46:00,
2013-07-03 08:01:00,59.9,55.0,30.17,North,5,0.0,3.0,85,0.00,,,0.00,weatherlink.com 1.10,2013-07-03 12:01:00,
2013-07-03 08:16:00,61.8,57.0,30.16,North,5,0.0,3.0,83,0.00,,,0.00,weatherlink.com 1.10,2013-07-03 12:16:00,
2013-07-03 08:31:00,63.6,57.0,30.17,North,5,0.0,3.0,78,0.00,,,0.00,weatherlink.com 1.10,2013-07-03 12:31:00,
2013-07-03 08:47:00,66.5,56.0,30.17,SE,132,0.0,3.0,68,0.00,,,0.00,weatherlink.com 1.10,2013-07-03 12:47:00,
2013-07-03 09:02:00,67.1,53.0,30.17,South,179,1.0,5.0,62,0.00,,,0.00,weatherlink.com 1.10,2013-07-03 13:02:00,
2013-07-03 09:47:00,67.4,57.0,30.18,SSW,192,1.0,5.0,69,0.00,,,0.00,weatherlink.com 1.10,2013-07-03 13:47:00,
2013-07-03 10:17:00,67.8,56.0,30.18,South,180,5.0,7.0,67,0.00,,,0.00,weatherlink.com 1.10,2013-07-03 14:17:00,
2013-07-03 10:47:00,67.4,55.0,30.18,SSW,209,2.0,6.0,65,0.00,,,0.00,weatherlink.com 1.10,2013-07-03 14:47:00,
2013-07-03 11:17:00,69.4,56.0,30.18,South,173,4.0,7.0,63,0.00,,,0.00,weatherlink.com 1.10,2013-07-03 15:17:00,
2013-07-03 11:32:00,69.5,54.0,30.18,SSW,201,4.0,7.0,59,0.00,,,0.00,weatherlink.com 1.10,2013-07-03 15:32:00,
2013-07-03 11:47:00,69.7,56.0,30.18,SSW,204,5.0,7.0,63,0.00,,,0.00,weatherlink.com 1.10,2013-07-03 15:47:00,
2013-07-03 12:02:00,69.4,58.0,30.18,SSW,201,6.0,9.0,67,0.00,,,0.00,weatherlink.com 1.10,2013-07-03 16:02:00,
2013-07-03 12:17:00,69.9,56.0,30.18,South,188,3.0,10.0,62,0.00,,,0.00,weatherlink.com 1.10,2013-07-03 16:17:00,
2013-07-03 12:32:00,70.2,57.0,30.18,SSE,153,4.0,9.0,63,0.00,,,0.00,weatherlink.com 1.10,2013-07-03 16:32:00,
2013-07-03 12:47:00,71.8,57.0,30.17,South,169,0.0,6.0,60,0.00,,,0.00,weatherlink.com 1.10,2013-07-03 16:47:00,
2013-07-03 13:02:00,71.2,55.0,30.17,South,182,5.0,8.0,57,0.00,,,0.00,weatherlink.com 1.10,2013-07-03 17:02:00,
2013-07-03 13:17:00,71.8,49.0,30.17,SE,144,0.0,7.0,45,0.00,,,0.00,weatherlink.com 1.10,2013-07-03 17:17:00,
2013-07-03 13:32:00,72.1,54.0,30.17,SSW,198,1.0,7.0,53,0.00,,,0.00,weatherlink.com 1.10,2013-07-03 17:32:00,
2013-07-03 14:02:00,72.0,53.0,30.16,SE,140,1.0,6.0,51,0.00,,,0.00,weatherlink.com 1.10,2013-07-03 18:02:00,
2013-07-03 14:17:00,72.6,54.0,30.15,ENE,65,4.0,8.0,53,0.00,,,0.00,weatherlink.com 1.10,2013-07-03 18:17:00,
2013-07-03 14:32:00,72.1,59.0,30.15,SSW,202,5.0,8.0,63,0.00,,,0.00,weatherlink.com 1.10,2013-07-03 18:32:00,
2013-07-03 15:17:00,73.3,51.0,30.14,SSE,164,2.0,9.0,46,0.00,,,0.00,weatherlink.com 1.10,2013-07-03 19:17:00,
2013-07-03 15:32:00,73.7,52.0,30.14,South,190,2.0,9.0,46,0.00,,,0.00,weatherlink.com 1.10,2013-07-03 19:32:00,
2013-07-03 15:47:00,73.7,50.0,30.14,SSE,167,5.0,9.0,44,0.00,,,0.00,weatherlink.com 1.10,2013-07-03 19:47:00,
2013-07-03 16:17:00,73.3,51.0,30.14,SSE,165,0.0,9.0,45,0.00,,,0.00,weatherlink.com 1.10,2013-07-03 20:17:00,
2013-07-03 16:47:00,73.1,50.0,30.14,SSE,151,1.0,8.0,45,0.00,,,0.00,weatherlink.com 1.10,2013-07-03 20:47:00,
2013-07-03 17:02:00,73.4,51.0,30.13,SE,142,2.0,9.0,46,0.00,,,0.00,weatherlink.com 1.10,2013-07-03 21:02:00,
2013-07-03 17:17:00,73.7,48.0,30.13,SSE,168,4.0,7.0,41,0.00,,,0.00,weatherlink.com 1.10,2013-07-03 21:17:00,
2013-07-03 17:32:00,73.7,50.0,30.13,SE,144,2.0,6.0,43,0.00,,,0.00,weatherlink.com 1.10,2013-07-03 21:32:00,
2013-07-03 17:47:00,73.9,49.0,30.12,SE,127,0.0,7.0,41,0.00,,,0.00,weatherlink.com 1.10,2013-07-03 21:47:00,
2013-07-03 18:02:00,74.0,49.0,30.12,SE,130,4.0,7.0,41,0.00,,,0.00,weatherlink.com 1.10,2013-07-03 22:02:00,
2013-07-03 18:17:00,74.4,50.0,30.12,SSE,161,1.0,6.0,42,0.00,,,0.00,weatherlink.com 1.10,2013-07-03 22:17:00,
2013-07-03 19:03:00,73.8,51.0,30.10,SSE,161,1.0,6.0,45,0.00,,,0.00,weatherlink.com 1.10,2013-07-03 23:03:00,
2013-07-03 19:33:00,73.3,53.0,30.09,SE,130,2.0,5.0,50,0.00,,,0.00,weatherlink.com 1.10,2013-07-03 23:33:00,
2013-07-03 20:03:00,72.7,53.0,30.09,East,99,0.0,3.0,51,0.00,,,0.00,weatherlink.com 1.10,2013-07-04 00:03:00,
2013-07-03 20:33:00,71.3,54.0,30.10,South,188,0.0,2.0,55,0.00,,,0.00,weatherlink.com 1.10,2013-07-04 00:33:00,
2013-07-03 21:03:00,69.6,57.0,30.10,SSE,159,0.0,1.0,64,0.00,,,0.00,weatherlink.com 1.10,2013-07-04 01:03:00,
2013-07-03 21:18:00,68.2,58.0,30.10,SSE,151,0.0,1.0,70,0.00,,,0.00,weatherlink.com 1.10,2013-07-04 01:18:00,
2013-07-03 21:33:00,67.4,58.0,30.10,SSE,151,0.0,1.0,73,0.00,,,0.00,weatherlink.com 1.10,2013-07-04 01:33:00,
2013-07-03 21:48:00,66.9,59.0,30.10,SSE,150,0.0,1.0,75,0.00,,,0.00,weatherlink.com 1.10,2013-07-04 01:48:00,
2013-07-03 22:18:00,64.5,58.0,30.10,SSE,150,0.0,3.0,80,0.00,,,0.00,weatherlink.com 1.10,2013-07-04 02:18:00,
2013-07-03 22:33:00,64.0,58.0,30.10,SSE,150,1.0,1.0,81,0.00,,,0.00,weatherlink.com 1.10,2013-07-04 02:33:00,
2013-07-03 22:48:00,63.5,58.0,30.10,SSE,150,0.0,1.0,82,0.00,,,0.00,weatherlink.com 1.10,2013-07-04 02:48:00,
2013-07-03 23:03:00,63.5,58.0,30.11,SSE,158,0.0,3.0,82,0.00,,,0.00,weatherlink.com 1.10,2013-07-04 03:03:00,
2013-07-03 23:18:00,63.1,58.0,30.11,SSE,158,0.0,1.0,82,0.00,,,0.00,weatherlink.com 1.10,2013-07-04 03:18:00,
2013-07-03 23:33:00,62.7,58.0,30.11,SSE,158,0.0,1.0,83,0.00,,,0.00,weatherlink.com 1.10,2013-07-04 03:33:00,
2013-07-03 23:48:00,62.8,58.0,30.11,SSE,158,0.0,1.0,84,0.00,,,0.00,weatherlink.com 1.10,2013-07-04 03:48:00,